Time;durP1;ratioP1;P1;durP2;ratioP2;P2;SDS_P1;SDS_P2;PMS_P1;PMS_P2;Temp;Humidity;BMP_temperature;BMP_pressure;BME280_temperature;BME280_humidity;BME280_pressure;Samples;Min_cycle;Max_cycle;Signal;HPM_P1;HPM_P2
2023/03/18 00:04:43;;;;;;;19.70;9.40;;;;;;;10.09;44.26;99378.96;267506;1267;25274;-78
2023/03/18 00:10:44;;;;;;;23.30;9.20;;;;;;;10.24;44.03;99368.20;267670;1270;22543;-80
2023/03/18 00:16:46;;;;;;;18.80;8.70;;;;;;;9.85;44.61;99367.95;267275;1273;22536;-80
2023/03/18 00:22:49;;;;;;;22.70;9.80;;;;;;;9.61;45.23;99364.45;267161;1270;22552;-81
2023/03/18 00:28:52;;;;;;;24.60;10.50;;;;;;;9.39;45.54;99367.92;267238;1269;22565;-80
2023/03/18 00:34:55;;;;;;;20.40;9.00;;;;;;;9.58;45.39;99363.66;267173;1267;24180;-82
2023/03/18 00:41:03;;;;;;;19.90;8.70;;;;;;;9.71;45.12;99362.97;267481;1270;22589;-82
2023/03/18 00:47:05;;;;;;;23.90;9.20;;;;;;;9.46;45.72;99364.89;267539;1272;22571;-82
2023/03/18 00:53:08;;;;;;;23.60;10.20;;;;;;;9.58;45.54;99355.11;267567;1267;22539;-81
2023/03/18 00:59:10;;;;;;;22.60;9.20;;;;;;;9.47;45.85;99349.98;267490;1267;24555;-81
2023/03/18 01:05:13;;;;;;;21.20;10.10;;;;;;;9.61;45.55;99348.08;267454;1273;24225;-80
2023/03/18 01:11:15;;;;;;;23.60;9.40;;;;;;;9.36;46.02;99341.68;267115;1273;25488;-80
2023/03/18 01:17:17;;;;;;;20.60;9.30;;;;;;;9.09;46.48;99338.67;267295;1270;25651;-79
2023/03/18 01:23:19;;;;;;;22.10;9.70;;;;;;;9.24;46.39;99332.13;267183;1267;24460;-78
2023/03/18 01:29:22;;;;;;;22.90;9.80;;;;;;;9.16;46.37;99328.70;267259;1266;25573;-81
2023/03/18 01:35:24;;;;;;;22.20;9.60;;;;;;;9.12;46.39;99328.32;267372;1267;22631;-80
2023/03/18 01:41:27;;;;;;;19.60;9.00;;;;;;;9.27;45.92;99323.33;267605;1269;22942;-80
2023/03/18 01:47:29;;;;;;;20.90;8.70;;;;;;;9.41;45.56;99320.50;267716;1267;23243;-81
2023/03/18 01:53:38;;;;;;;20.70;8.70;;;;;;;9.05;46.03;99315.19;267328;1268;22469;-81
2023/03/18 01:59:41;;;;;;;21.30;9.40;;;;;;;8.92;46.43;99312.81;268191;1273;24061;-82
2023/03/18 02:05:43;;;;;;;24.00;9.40;;;;;;;8.93;46.35;99315.28;267664;1257;24247;-80
2023/03/18 02:11:48;;;;;;;23.30;9.20;;;;;;;8.93;46.59;99315.77;268058;1270;22482;-80
2023/03/18 02:18:01;;;;;;;23.00;9.90;;;;;;;8.51;47.32;99312.61;268277;1273;25250;-81
2023/03/18 02:24:38;;;;;;;24.60;9.30;;;;;;;8.62;47.31;99312.23;267747;1268;24914;-81
2023/03/18 02:30:48;;;;;;;22.40;9.30;;;;;;;8.68;47.09;99310.99;266347;1257;23222;-81
2023/03/18 02:36:51;;;;;;;22.60;9.10;;;;;;;8.60;47.21;99311.52;266570;1280;22533;-83
2023/03/18 02:42:53;;;;;;;23.30;9.20;;;;;;;8.49;47.42;99307.71;267580;1280;22581;-83
2023/03/18 02:48:56;;;;;;;21.50;9.30;;;;;;;8.62;47.20;99302.58;267010;1277;23102;-83
2023/03/18 02:54:58;;;;;;;21.10;9.40;;;;;;;8.58;47.23;99306.61;266349;1280;23237;-83
2023/03/18 03:01:00;;;;;;;17.80;9.80;;;;;;;8.52;47.41;99306.72;265983;1258;22540;-82
2023/03/18 03:07:02;;;;;;;18.90;8.20;;;;;;;8.44;47.55;99303.23;266804;1274;24020;-83
2023/03/18 03:13:10;;;;;;;17.50;8.10;;;;;;;8.35;47.64;99301.89;267706;1271;25141;-83
2023/03/18 03:19:13;;;;;;;18.00;7.90;;;;;;;8.35;47.64;99305.96;267169;1273;24844;-84
2023/03/18 03:25:15;;;;;;;16.80;7.40;;;;;;;8.21;47.85;99304.72;267291;1274;22996;-84
2023/03/18 03:31:16;;;;;;;17.90;8.20;;;;;;;8.24;47.89;99302.77;267307;1268;24416;-84
2023/03/18 03:37:18;;;;;;;17.00;7.40;;;;;;;8.12;48.36;99303.04;268110;1257;22636;-81
2023/03/18 03:43:21;;;;;;;21.00;8.80;;;;;;;8.37;47.82;99299.04;267306;1259;22576;-80
2023/03/18 03:49:23;;;;;;;21.10;9.10;;;;;;;8.26;48.17;99300.05;267483;1270;24255;-80
2023/03/18 03:55:25;;;;;;;20.40;8.80;;;;;;;8.38;48.02;99299.16;267107;1274;24589;-81
2023/03/18 04:01:28;;;;;;;19.70;8.50;;;;;;;8.13;48.51;99306.25;267219;1270;22531;-84
2023/03/18 04:07:35;;;;;;;21.60;8.50;;;;;;;8.07;48.65;99301.31;267323;1268;23883;-81
2023/03/18 04:13:37;;;;;;;18.10;8.30;;;;;;;8.13;48.70;99305.39;267774;1270;22526;-81
2023/03/18 04:19:39;;;;;;;16.10;8.00;;;;;;;8.15;48.78;99302.83;267382;1274;22538;-82
2023/03/18 04:25:41;;;;;;;19.80;8.10;;;;;;;7.97;49.12;99304.50;267863;1271;22572;-85
2023/03/18 04:31:43;;;;;;;18.20;8.50;;;;;;;8.01;49.25;99312.36;268521;1273;22560;-85
2023/03/18 04:37:45;;;;;;;20.70;8.80;;;;;;;7.86;49.51;99318.95;268111;1271;23119;-84
2023/03/18 04:43:47;;;;;;;19.40;9.10;;;;;;;7.78;49.79;99325.66;267701;1270;22573;-84
2023/03/18 04:49:50;;;;;;;23.00;10.70;;;;;;;7.57;50.10;99328.34;267267;1265;27045;-85
2023/03/18 04:55:54;;;;;;;20.90;9.90;;;;;;;7.58;50.23;99334.05;267717;1273;23755;-86
2023/03/18 05:01:59;;;;;;;20.10;9.90;;;;;;;7.71;50.01;99334.81;267557;1273;25375;-83
2023/03/18 05:08:02;;;;;;;17.40;9.10;;;;;;;7.87;49.78;99333.83;267137;1268;24134;-81
2023/03/18 05:14:05;;;;;;;21.10;9.30;;;;;;;8.11;49.27;99331.39;267299;1273;24209;-82
2023/03/18 05:20:13;;;;;;;17.30;8.70;;;;;;;8.01;49.22;99332.86;267336;1266;22534;-79
2023/03/18 05:26:16;;;;;;;16.80;8.20;;;;;;;8.41;48.62;99333.98;267560;1270;24252;-83
2023/03/18 05:32:19;;;;;;;16.40;8.20;;;;;;;8.41;48.41;99340.22;267283;1273;24314;-81
2023/03/18 05:38:24;;;;;;;16.20;8.10;;;;;;;8.62;48.08;99339.52;267209;1273;24320;-83
2023/03/18 05:44:27;;;;;;;15.10;7.40;;;;;;;8.94;47.59;99344.61;267715;1274;23884;-86
2023/03/18 05:50:34;;;;;;;14.20;7.40;;;;;;;9.23;46.95;99337.90;268571;1270;24279;-85
2023/03/18 05:56:38;;;;;;;17.40;7.60;;;;;;;8.87;47.31;99341.10;268625;1274;22633;-86
2023/03/18 06:02:40;;;;;;;17.00;7.40;;;;;;;8.86;47.55;99331.65;268917;1253;22713;-85
2023/03/18 06:08:44;;;;;;;19.20;8.60;;;;;;;8.39;48.18;99333.83;268787;1273;23385;-83
2023/03/18 06:14:45;;;;;;;17.60;7.60;;;;;;;8.98;47.52;99335.71;268567;1269;22792;-85
2023/03/18 06:20:48;;;;;;;16.30;8.00;;;;;;;9.34;46.93;99337.89;268503;1273;22554;-85
2023/03/18 06:26:50;;;;;;;18.50;8.20;;;;;;;9.79;46.21;99340.60;268796;1271;24161;-82
2023/03/18 06:32:52;;;;;;;15.90;8.00;;;;;;;9.89;45.91;99347.54;267183;1270;24250;-86
2023/03/18 06:38:55;;;;;;;20.50;8.50;;;;;;;9.89;45.84;99350.92;267188;1269;25352;-81
2023/03/18 06:44:58;;;;;;;15.00;8.10;;;;;;;10.18;45.55;99354.46;267164;1273;26824;-80
2023/03/18 06:51:17;;;;;;;17.40;7.90;;;;;;;10.59;45.18;99355.77;267396;1259;22695;-82
2023/03/18 06:57:19;;;;;;;16.10;7.50;;;;;;;11.05;44.45;99359.89;267308;1269;25359;-82
2023/03/18 07:03:24;;;;;;;17.40;7.90;;;;;;;11.06;44.09;99356.43;267038;1266;25641;-82
2023/03/18 07:09:27;;;;;;;14.60;7.50;;;;;;;11.37;43.71;99351.23;267179;1269;25245;-81
2023/03/18 07:15:32;;;;;;;14.90;7.30;;;;;;;11.75;43.17;99357.09;268014;1269;22558;-79
2023/03/18 07:21:36;;;;;;;14.60;7.30;;;;;;;11.90;43.05;99362.04;267255;1267;25249;-81
2023/03/18 07:27:38;;;;;;;15.20;7.70;;;;;;;12.29;42.72;99363.96;267856;1257;24640;-81
2023/03/18 07:33:40;;;;;;;17.30;8.40;;;;;;;12.47;42.24;99365.22;267885;1268;23875;-80
2023/03/18 07:39:42;;;;;;;16.70;8.20;;;;;;;12.90;41.43;99365.91;267855;1269;22524;-80
2023/03/18 07:45:44;;;;;;;19.40;7.90;;;;;;;13.08;41.40;99367.20;267907;1269;25418;-81
2023/03/18 07:51:46;;;;;;;17.30;8.80;;;;;;;13.26;41.49;99375.14;267537;1268;91779;-78
2023/03/18 07:57:48;;;;;;;15.20;8.10;;;;;;;13.45;40.85;99374.42;268215;1271;23362;-80
2023/03/18 08:03:50;;;;;;;15.50;7.80;;;;;;;13.43;40.50;99375.80;267952;1252;24047;-77
2023/03/18 08:10:19;;;;;;;16.70;8.40;;;;;;;13.62;40.60;99374.62;268385;1269;23376;-79
2023/03/18 08:16:21;;;;;;;13.80;7.60;;;;;;;14.07;40.11;99382.15;267885;1269;22534;-79
2023/03/18 08:22:24;;;;;;;15.40;7.40;;;;;;;14.07;39.86;99387.98;267600;1269;22550;-79
2023/03/18 08:28:26;;;;;;;14.50;7.00;;;;;;;14.53;39.50;99386.57;267841;1267;24473;-79
2023/03/18 08:34:28;;;;;;;15.00;7.20;;;;;;;14.61;39.13;99388.04;267695;1266;24407;-80
2023/03/18 08:40:29;;;;;;;13.50;7.10;;;;;;;14.97;38.50;99390.52;267717;1268;23327;-79
2023/03/18 08:46:31;;;;;;;13.70;7.10;;;;;;;15.19;38.03;99380.29;267852;1255;22569;-79
2023/03/18 08:52:33;;;;;;;13.40;7.30;;;;;;;15.52;37.69;99380.94;267765;1260;24818;-79
2023/03/18 08:58:35;;;;;;;14.50;7.50;;;;;;;15.38;37.66;99379.91;267487;1268;23998;-80
2023/03/18 09:04:36;;;;;;;12.70;6.80;;;;;;;15.50;37.20;99378.95;267395;1267;24245;-80
2023/03/18 09:10:38;;;;;;;14.00;7.10;;;;;;;15.89;36.93;99373.41;267016;1255;22599;-81
2023/03/18 09:16:40;;;;;;;12.00;6.50;;;;;;;16.05;36.88;99371.39;267034;1267;22537;-80
2023/03/18 09:22:43;;;;;;;11.90;5.90;;;;;;;16.30;36.70;99368.43;267084;1269;22568;-81
2023/03/18 09:28:45;;;;;;;12.80;7.00;;;;;;;16.30;36.26;99367.50;267880;1268;22539;-81
2023/03/18 09:34:46;;;;;;;19.20;7.40;;;;;;;16.15;36.47;99364.25;267613;1269;22937;-79
2023/03/18 09:41:38;;;;;;;13.00;6.40;;;;;;;16.53;36.24;99364.98;267321;1274;22539;-79
2023/03/18 09:48:26;;;;;;;12.30;6.10;;;;;;;16.80;35.78;99357.25;267001;1269;24192;-81
2023/03/18 09:54:46;;;;;;;10.80;5.10;;;;;;;16.70;34.95;99351.55;267226;1269;22533;-81
2023/03/18 10:00:50;;;;;;;11.10;5.40;;;;;;;17.04;34.11;99347.48;267137;1273;23323;-81
2023/03/18 10:07:11;;;;;;;10.60;4.90;;;;;;;17.28;34.53;99342.59;267002;1261;23127;-80
2023/03/18 10:13:17;;;;;;;9.60;4.90;;;;;;;17.29;33.17;99338.31;267866;1271;22533;-80
2023/03/18 10:19:19;;;;;;;9.00;4.80;;;;;;;17.61;32.50;99336.83;267571;1256;24073;-82
2023/03/18 10:25:27;;;;;;;8.70;4.70;;;;;;;17.67;32.35;99330.54;267568;1265;23121;-80
2023/03/18 10:31:53;;;;;;;11.60;5.10;;;;;;;17.68;32.41;99325.33;267320;1268;23275;-79
2023/03/18 10:38:03;;;;;;;;;;;;;;;17.78;32.06;99320.65;267343;1273;24186;-80
2023/03/18 10:44:40;;;;;;;9.10;4.70;;;;;;;18.07;31.74;99318.52;267438;1272;25588;-79
2023/03/18 10:50:51;;;;;;;9.70;5.30;;;;;;;17.93;31.92;99313.41;266245;1280;22610;-79
2023/03/18 10:56:53;;;;;;;10.10;5.50;;;;;;;18.04;31.87;99307.03;265723;1273;22689;-79
2023/03/18 11:02:55;;;;;;;8.80;4.70;;;;;;;18.08;31.97;99304.48;265970;1271;24333;-80
2023/03/18 11:09:20;;;;;;;9.20;5.00;;;;;;;18.24;31.55;99307.88;266412;1277;24448;-79
2023/03/18 11:15:23;;;;;;;8.10;4.60;;;;;;;17.83;31.80;99300.47;265665;1277;22576;-82
2023/03/18 11:21:27;;;;;;;9.40;4.70;;;;;;;18.05;31.34;99295.45;266087;1271;22603;-83
2023/03/18 11:27:36;;;;;;;9.10;4.50;;;;;;;18.91;30.33;99282.72;267307;1259;25361;-83
2023/03/18 11:33:38;;;;;;;8.00;3.90;;;;;;;18.88;30.11;99271.88;267102;1252;24153;-82
2023/03/18 11:39:40;;;;;;;8.40;4.60;;;;;;;18.87;30.65;99262.40;267319;1266;22529;-82
2023/03/18 11:45:43;;;;;;;11.30;5.00;;;;;;;18.57;31.02;99265.61;267147;1267;26496;-82
2023/03/18 11:51:56;;;;;;;9.80;5.10;;;;;;;19.10;30.82;99252.20;267298;1257;22526;-81
2023/03/18 11:58:46;;;;;;;9.10;5.30;;;;;;;19.32;30.50;99241.11;267442;1266;22568;-82
2023/03/18 12:05:04;;;;;;;9.50;5.10;;;;;;;19.75;30.61;99236.53;266272;1274;22573;-82
2023/03/18 12:11:37;;;;;;;9.10;5.00;;;;;;;19.73;30.54;99232.20;265740;1271;26677;-81
2023/03/18 12:18:00;;;;;;;8.70;5.00;;;;;;;19.25;30.77;99226.65;265813;1275;22581;-79
2023/03/18 12:24:20;;;;;;;8.80;5.40;;;;;;;19.51;30.64;99219.60;265986;1274;24282;-81
2023/03/18 12:30:35;;;;;;;8.70;5.10;;;;;;;19.63;30.66;99218.22;266159;1271;22537;-80
2023/03/18 12:36:53;;;;;;;8.40;4.90;;;;;;;19.78;30.46;99214.70;266338;1266;25421;-80
2023/03/18 12:43:16;;;;;;;9.50;5.00;;;;;;;19.53;30.74;99213.13;267164;1267;24262;-80
2023/03/18 12:49:21;;;;;;;8.90;5.30;;;;;;;19.52;30.89;99207.63;267088;1271;22540;-81
2023/03/18 12:55:35;;;;;;;8.10;4.80;;;;;;;19.24;31.31;99198.70;267438;1253;25439;-82
2023/03/18 13:01:46;;;;;;;9.50;4.80;;;;;;;19.48;31.41;99196.86;267809;1272;22555;-82
2023/03/18 13:08:15;;;;;;;9.50;5.10;;;;;;;19.71;31.44;99189.55;267009;1273;24187;-84
2023/03/18 13:14:32;;;;;;;8.90;5.10;;;;;;;19.50;31.82;99191.62;267409;1268;22554;-83
2023/03/18 13:20:36;;;;;;;7.70;5.00;;;;;;;19.57;31.84;99183.67;267048;1271;22543;-84
2023/03/18 13:27:19;;;;;;;8.10;5.20;;;;;;;19.82;31.50;99180.94;267425;1269;24351;-84
2023/03/18 13:33:55;;;;;;;9.50;4.80;;;;;;;19.96;31.17;99177.41;267539;1266;25230;-82
2023/03/18 13:40:16;;;;;;;8.90;4.20;;;;;;;20.00;30.89;99172.80;267401;1266;22581;-81
2023/03/18 13:46:21;;;;;;;8.70;4.50;;;;;;;20.36;30.37;99166.35;267748;1274;25407;-81
2023/03/18 13:52:27;;;;;;;8.10;4.30;;;;;;;20.30;30.20;99159.92;267545;1272;22534;-82
2023/03/18 14:05:41;;;;;;;8.10;4.30;;;;;;;20.54;29.77;99148.30;267134;1256;24249;-78
2023/03/18 14:11:46;;;;;;;7.30;3.40;;;;;;;20.66;29.72;99140.98;267209;1270;22621;-78
2023/03/18 14:17:55;;;;;;;7.10;3.80;;;;;;;20.45;29.66;99140.13;267749;1271;22622;-79
2023/03/18 14:24:03;;;;;;;6.50;3.80;;;;;;;20.37;29.78;99139.27;267256;1271;22565;-80
2023/03/18 14:30:42;;;;;;;6.40;3.40;;;;;;;20.94;29.25;99129.42;267398;1270;26003;-80
2023/03/18 14:36:53;;;;;;;8.30;4.30;;;;;;;20.72;29.50;99120.35;267151;1273;22526;-82
2023/03/18 14:43:00;;;;;;;6.50;3.70;;;;;;;20.67;29.35;99123.44;267248;1271;22698;-80
2023/03/18 14:49:31;;;;;;;9.10;3.90;;;;;;;20.39;29.78;99121.37;267314;1272;25651;-82
2023/03/18 14:55:34;;;;;;;7.10;3.70;;;;;;;20.45;30.12;99117.77;267236;1272;22970;-79
2023/03/18 15:01:38;;;;;;;7.90;3.40;;;;;;;20.47;30.40;99122.30;267829;1267;22613;-79
2023/03/18 15:07:40;;;;;;;7.10;3.50;;;;;;;20.54;30.62;99119.14;267530;1266;22794;-80
2023/03/18 15:13:42;;;;;;;6.70;3.20;;;;;;;20.71;30.42;99115.68;267377;1272;23811;-85
2023/03/18 15:19:45;;;;;;;7.30;3.50;;;;;;;20.58;30.76;99118.16;268285;1273;22568;-85
2023/03/18 15:25:48;;;;;;;7.20;3.60;;;;;;;20.40;30.87;99114.85;268277;1273;22529;-83
2023/03/18 15:31:50;;;;;;;5.70;3.40;;;;;;;20.14;31.24;99114.44;267513;1271;22525;-83
2023/03/18 15:38:20;;;;;;;6.80;3.30;;;;;;;20.07;31.27;99111.80;268535;1273;22540;-84
2023/03/18 15:44:31;;;;;;;8.60;3.50;;;;;;;20.26;31.23;99113.34;267902;1275;22564;-83
2023/03/18 15:50:35;;;;;;;7.60;3.20;;;;;;;20.19;31.15;99120.65;267488;1257;25287;-84
2023/03/18 15:56:43;;;;;;;6.30;3.00;;;;;;;20.15;31.23;99125.52;267372;1267;24245;-80
2023/03/18 16:02:45;;;;;;;8.00;3.20;;;;;;;19.98;31.23;99129.73;267439;1266;22680;-79
2023/03/18 16:08:48;;;;;;;6.50;3.70;;;;;;;20.47;31.09;99131.20;267340;1263;22582;-80
2023/03/18 16:14:50;;;;;;;8.80;3.60;;;;;;;19.97;31.88;99135.67;267409;1272;24460;-79
2023/03/18 16:20:53;;;;;;;9.90;3.90;;;;;;;19.76;32.29;99143.73;267344;1267;25213;-81
2023/03/18 16:26:56;;;;;;;11.40;4.40;;;;;;;19.32;32.58;99148.31;267867;1269;25478;-80
2023/03/18 16:32:58;;;;;;;7.50;4.00;;;;;;;19.37;32.61;99149.96;267600;1269;22560;-80
2023/03/18 16:39:00;;;;;;;7.40;3.60;;;;;;;19.30;32.69;99152.14;267765;1272;22532;-81
2023/03/18 16:45:04;;;;;;;7.20;3.70;;;;;;;19.06;32.90;99148.90;267644;1270;22530;-77
2023/03/18 16:51:06;;;;;;;10.40;3.90;;;;;;;18.70;33.31;99146.91;267776;1263;24352;-80
2023/03/18 16:57:15;;;;;;;9.50;3.40;;;;;;;18.59;33.44;99148.08;268012;1267;25388;-79
2023/03/18 17:03:18;;;;;;;9.30;4.10;;;;;;;18.59;33.45;99147.81;267297;1267;22550;-79
2023/03/18 17:09:21;;;;;;;11.40;4.50;;;;;;;18.51;33.53;99152.21;268082;1267;22610;-79
2023/03/18 17:15:27;;;;;;;10.00;4.50;;;;;;;18.35;33.84;99156.27;270551;1263;24204;-79
2023/03/18 17:21:30;;;;;;;9.60;4.60;;;;;;;18.16;34.25;99161.36;267324;1267;23041;-80
2023/03/18 17:27:37;;;;;;;12.10;5.00;;;;;;;18.25;34.47;99157.41;267832;1266;22581;-80
2023/03/18 17:33:39;;;;;;;14.60;5.40;;;;;;;18.21;34.91;99160.69;267280;1266;22535;-81
2023/03/18 17:39:41;;;;;;;18.60;8.90;;;;;;;18.18;35.05;99162.55;267116;1267;22533;-79
2023/03/18 17:45:43;;;;;;;17.90;7.80;;;;;;;17.88;35.27;99165.73;267484;1267;22548;-80
2023/03/18 17:51:47;;;;;;;16.90;7.10;;;;;;;17.76;35.72;99172.99;267581;1267;22532;-80
2023/03/18 17:57:49;;;;;;;14.80;7.10;;;;;;;17.75;35.96;99170.05;267362;1270;22739;-78
2023/03/18 18:03:56;;;;;;;17.40;8.70;;;;;;;17.60;36.05;99168.63;267473;1251;24032;-81
2023/03/18 18:09:59;;;;;;;18.50;8.40;;;;;;;17.54;36.32;99162.44;267498;1267;22527;-80
2023/03/18 18:16:10;;;;;;;17.20;7.50;;;;;;;17.48;36.67;99165.88;268264;1270;23890;-79
2023/03/18 18:22:17;;;;;;;19.80;8.50;;;;;;;17.37;36.92;99163.33;267304;1267;22493;-79
2023/03/18 18:28:21;;;;;;;18.90;9.00;;;;;;;17.37;37.63;99163.06;267260;1260;22536;-79
2023/03/18 18:34:22;;;;;;;21.70;9.00;;;;;;;17.16;37.54;99162.48;267182;1272;22534;-77
2023/03/18 18:40:24;;;;;;;21.40;8.80;;;;;;;17.02;37.85;99162.67;267025;1267;23465;-79
2023/03/18 18:46:27;;;;;;;21.00;9.60;;;;;;;16.76;38.49;99167.29;267029;1273;22683;-80
2023/03/18 18:52:31;;;;;;;19.20;8.20;;;;;;;16.63;38.96;99175.14;267268;1270;25258;-81
2023/03/18 18:58:33;;;;;;;18.50;8.20;;;;;;;16.42;40.26;99179.58;267351;1267;22578;-79
2023/03/18 19:04:35;;;;;;;23.90;9.70;;;;;;;16.06;40.42;99182.69;267818;1270;22529;-79
2023/03/18 19:10:36;;;;;;;29.10;9.20;;;;;;;15.88;41.05;99189.96;267267;1267;24603;-79
2023/03/18 19:16:38;;;;;;;21.50;8.80;;;;;;;15.79;40.25;99191.92;267231;1257;24264;-79
2023/03/18 19:22:40;;;;;;;23.30;8.70;;;;;;;15.35;41.53;99196.80;267194;1270;22770;-79
2023/03/18 19:34:59;;;;;;;21.70;9.20;;;;;;;14.77;42.38;99198.17;267623;1266;23279;-82
2023/03/18 19:41:01;;;;;;;19.30;9.20;;;;;;;14.43;43.26;99200.70;267416;1267;23978;-84
2023/03/18 19:47:03;;;;;;;16.00;8.60;;;;;;;14.30;43.55;99203.63;267774;1267;22567;-83
2023/03/18 19:53:27;;;;;;;19.70;8.40;;;;;;;14.07;43.55;99210.41;266034;1266;93765;-83
2023/03/18 19:59:31;;;;;;;20.50;9.00;;;;;;;13.97;44.16;99213.70;266032;1274;25459;-82
2023/03/18 20:05:40;;;;;;;18.30;8.10;;;;;;;13.85;44.71;99221.59;265942;1274;22953;-81
2023/03/18 20:11:43;;;;;;;16.40;7.60;;;;;;;13.64;45.20;99232.80;266481;1273;22588;-84
2023/03/18 20:17:57;;;;;;;21.80;7.80;;;;;;;13.51;45.43;99235.40;265887;1278;24909;-83
2023/03/18 20:24:03;;;;;;;21.00;8.40;;;;;;;13.60;45.03;99235.88;267127;1281;22524;-85
2023/03/18 20:30:15;;;;;;;18.90;8.80;;;;;;;13.43;45.17;99239.80;268498;1270;25797;-79
2023/03/18 20:36:17;;;;;;;20.90;9.40;;;;;;;13.16;44.94;99241.11;268048;1267;22524;-81
2023/03/18 20:42:19;;;;;;;28.20;12.80;;;;;;;13.13;44.98;99244.17;267252;1272;25488;-78
2023/03/18 20:48:24;;;;;;;35.80;15.60;;;;;;;13.23;45.44;99243.60;267503;1270;22568;-84
2023/03/18 20:54:30;;;;;;;47.70;20.40;;;;;;;13.32;45.37;99246.88;267356;1267;24193;-79
2023/03/18 21:00:32;;;;;;;56.60;22.90;;;;;;;13.45;44.83;99250.80;267846;1270;24235;-79
2023/03/18 21:06:36;;;;;;;35.70;15.10;;;;;;;13.42;45.17;99258.74;267429;1266;26613;-79
2023/03/18 21:12:38;;;;;;;28.00;12.20;;;;;;;13.05;46.64;99264.84;267803;1260;22527;-80
2023/03/18 21:18:46;;;;;;;25.90;12.30;;;;;;;13.21;45.96;99265.13;267589;1267;25396;-80
2023/03/18 21:24:53;;;;;;;29.80;13.60;;;;;;;13.51;45.59;99265.33;267226;1268;22520;-79
2023/03/18 21:31:00;;;;;;;33.90;15.60;;;;;;;13.43;45.31;99267.25;267311;1267;23048;-80
2023/03/18 21:37:12;;;;;;;38.20;18.30;;;;;;;13.33;45.37;99269.38;267084;1267;22520;-83
2023/03/18 21:43:38;;;;;;;30.40;14.70;;;;;;;13.31;45.49;99276.38;267552;1265;22623;-81
2023/03/18 21:49:41;;;;;;;39.40;18.80;;;;;;;13.41;45.80;99274.10;268811;1270;22452;-79
2023/03/18 21:55:44;;;;;;;31.50;15.90;;;;;;;13.19;45.91;99269.90;272441;1270;22125;-79
2023/03/18 22:01:47;;;;;;;36.40;17.70;;;;;;;13.00;46.44;99266.95;267742;1267;22591;-79
2023/03/18 22:07:51;;;;;;;38.80;18.80;;;;;;;12.83;46.83;99268.48;267346;1269;25463;-85
2023/03/18 22:13:53;;;;;;;39.50;18.80;;;;;;;12.70;46.81;99265.48;267530;1267;22558;-80
2023/03/18 22:19:59;;;;;;;57.70;27.00;;;;;;;12.42;47.46;99266.91;267316;1269;23252;-82
2023/03/18 22:26:27;;;;;;;48.20;24.10;;;;;;;12.46;47.70;99269.31;267079;1273;25295;-77
2023/03/18 22:32:38;;;;;;;55.00;26.10;;;;;;;12.65;47.39;99265.33;267230;1269;23877;-78
2023/03/18 22:38:43;;;;;;;59.10;28.90;;;;;;;12.67;47.30;99271.94;267057;1268;25254;-78
2023/03/18 22:44:45;;;;;;;49.30;24.90;;;;;;;12.61;47.48;99277.48;267026;1268;23876;-84
2023/03/18 22:50:47;;;;;;;45.30;22.50;;;;;;;12.52;47.64;99273.80;267243;1268;24201;-80
2023/03/18 22:56:48;;;;;;;46.10;21.80;;;;;;;12.39;47.93;99275.11;267395;1257;22577;-77
2023/03/18 23:02:53;;;;;;;52.80;23.20;;;;;;;12.52;47.75;99283.92;267445;1256;22636;-83
2023/03/18 23:08:55;;;;;;;48.10;24.00;;;;;;;12.40;47.90;99284.11;267417;1267;25406;-84
2023/03/18 23:14:57;;;;;;;54.80;25.60;;;;;;;12.18;48.38;99286.23;267080;1274;22545;-84
2023/03/18 23:20:59;;;;;;;50.40;24.10;;;;;;;12.02;48.55;99292.11;267129;1251;22557;-83
2023/03/18 23:27:00;;;;;;;55.00;26.40;;;;;;;11.93;48.81;99296.64;267375;1266;23301;-77
2023/03/18 23:33:02;;;;;;;59.20;27.70;;;;;;;11.77;48.99;99303.20;267344;1270;22542;-79
2023/03/18 23:39:04;;;;;;;53.10;26.70;;;;;;;11.62;49.33;99298.59;267541;1270;24235;-80
2023/03/18 23:45:07;;;;;;;58.00;27.70;;;;;;;11.42;49.63;99294.67;268235;1255;25588;-74
2023/03/18 23:51:08;;;;;;;55.50;26.50;;;;;;;11.42;49.59;99293.38;268043;1268;22587;-73
2023/03/18 23:57:11;;;;;;;55.30;26.10;;;;;;;11.35;49.95;99292.13;269028;1257;22464;-73
